sensor_id;sensor_type;location;lat;lon;timestamp;P1;durP1;ratioP1;P2;durP2;ratioP2
15633;SDS011;14654;48.898;8.308;2023-12-22T00:02:17;3.57;;;1.17;;
15633;SDS011;14654;48.898;8.308;2023-12-22T00:04:43;2.80;;;1.13;;
15633;SDS011;14654;48.898;8.308;2023-12-22T00:07:08;3.63;;;1.40;;
15633;SDS011;14654;48.898;8.308;2023-12-22T00:09:33;3.40;;;1.33;;
15633;SDS011;14654;48.898;8.308;2023-12-22T00:11:59;3.00;;;1.37;;
15633;SDS011;14654;48.898;8.308;2023-12-22T00:14:24;5.90;;;1.63;;
15633;SDS011;14654;48.898;8.308;2023-12-22T00:16:49;4.07;;;1.40;;
15633;SDS011;14654;48.898;8.308;2023-12-22T00:19:15;4.20;;;1.70;;
15633;SDS011;14654;48.898;8.308;2023-12-22T00:21:40;3.23;;;1.30;;
15633;SDS011;14654;48.898;8.308;2023-12-22T00:24:05;3.90;;;1.43;;
15633;SDS011;14654;48.898;8.308;2023-12-22T00:26:31;2.70;;;1.20;;
15633;SDS011;14654;48.898;8.308;2023-12-22T00:28:56;4.00;;;1.37;;
15633;SDS011;14654;48.898;8.308;2023-12-22T00:31:21;2.37;;;1.33;;
15633;SDS011;14654;48.898;8.308;2023-12-22T00:33:47;3.00;;;1.30;;
15633;SDS011;14654;48.898;8.308;2023-12-22T00:36:12;3.70;;;1.53;;
15633;SDS011;14654;48.898;8.308;2023-12-22T00:38:37;3.27;;;1.50;;
15633;SDS011;14654;48.898;8.308;2023-12-22T00:41:03;4.67;;;1.73;;
15633;SDS011;14654;48.898;8.308;2023-12-22T00:43:28;3.90;;;1.70;;
15633;SDS011;14654;48.898;8.308;2023-12-22T00:45:53;2.63;;;1.37;;
15633;SDS011;14654;48.898;8.308;2023-12-22T00:48:19;3.07;;;1.50;;
15633;SDS011;14654;48.898;8.308;2023-12-22T00:50:44;2.93;;;1.30;;
15633;SDS011;14654;48.898;8.308;2023-12-22T00:53:09;3.83;;;1.33;;
15633;SDS011;14654;48.898;8.308;2023-12-22T00:55:35;3.13;;;1.20;;
15633;SDS011;14654;48.898;8.308;2023-12-22T00:58:00;3.00;;;1.00;;
15633;SDS011;14654;48.898;8.308;2023-12-22T01:00:25;3.60;;;1.10;;
15633;SDS011;14654;48.898;8.308;2023-12-22T01:02:51;3.20;;;0.90;;
15633;SDS011;14654;48.898;8.308;2023-12-22T01:05:16;1.63;;;0.70;;
15633;SDS011;14654;48.898;8.308;2023-12-22T01:07:41;1.70;;;0.60;;
15633;SDS011;14654;48.898;8.308;2023-12-22T01:10:07;1.40;;;0.80;;
15633;SDS011;14654;48.898;8.308;2023-12-22T01:12:34;2.67;;;0.60;;
15633;SDS011;14654;48.898;8.308;2023-12-22T01:14:59;1.87;;;0.60;;
15633;SDS011;14654;48.898;8.308;2023-12-22T01:17:25;1.23;;;0.60;;
15633;SDS011;14654;48.898;8.308;2023-12-22T01:19:50;1.57;;;0.70;;
15633;SDS011;14654;48.898;8.308;2023-12-22T01:22:16;1.60;;;0.80;;
15633;SDS011;14654;48.898;8.308;2023-12-22T01:24:41;1.63;;;0.80;;
15633;SDS011;14654;48.898;8.308;2023-12-22T01:27:08;2.77;;;0.90;;
15633;SDS011;14654;48.898;8.308;2023-12-22T01:29:34;2.40;;;0.80;;
15633;SDS011;14654;48.898;8.308;2023-12-22T01:32:00;1.70;;;0.73;;
15633;SDS011;14654;48.898;8.308;2023-12-22T01:34:25;1.20;;;0.50;;
15633;SDS011;14654;48.898;8.308;2023-12-22T01:36:50;1.40;;;0.70;;
15633;SDS011;14654;48.898;8.308;2023-12-22T01:39:16;1.87;;;1.00;;
15633;SDS011;14654;48.898;8.308;2023-12-22T01:41:41;2.30;;;0.70;;
15633;SDS011;14654;48.898;8.308;2023-12-22T01:44:07;2.33;;;0.80;;
15633;SDS011;14654;48.898;8.308;2023-12-22T01:46:32;1.70;;;0.70;;
15633;SDS011;14654;48.898;8.308;2023-12-22T01:48:59;3.30;;;1.20;;
15633;SDS011;14654;48.898;8.308;2023-12-22T01:51:31;2.37;;;1.13;;
15633;SDS011;14654;48.898;8.308;2023-12-22T01:53:58;3.23;;;1.03;;
15633;SDS011;14654;48.898;8.308;2023-12-22T01:56:25;2.80;;;1.20;;
15633;SDS011;14654;48.898;8.308;2023-12-22T01:58:50;2.53;;;1.23;;
15633;SDS011;14654;48.898;8.308;2023-12-22T02:01:20;2.20;;;1.10;;
15633;SDS011;14654;48.898;8.308;2023-12-22T02:03:50;3.30;;;1.40;;
15633;SDS011;14654;48.898;8.308;2023-12-22T02:06:19;2.10;;;1.30;;
15633;SDS011;14654;48.898;8.308;2023-12-22T02:08:48;3.50;;;1.20;;
15633;SDS011;14654;48.898;8.308;2023-12-22T02:11:14;2.10;;;1.40;;
15633;SDS011;14654;48.898;8.308;2023-12-22T02:13:40;4.00;;;1.20;;
15633;SDS011;14654;48.898;8.308;2023-12-22T02:16:11;2.50;;;1.07;;
15633;SDS011;14654;48.898;8.308;2023-12-22T02:18:39;3.10;;;1.23;;
15633;SDS011;14654;48.898;8.308;2023-12-22T02:21:08;5.40;;;1.53;;
15633;SDS011;14654;48.898;8.308;2023-12-22T02:23:33;2.27;;;1.20;;
15633;SDS011;14654;48.898;8.308;2023-12-22T02:26:03;3.47;;;1.50;;
15633;SDS011;14654;48.898;8.308;2023-12-22T02:28:38;2.63;;;1.20;;
15633;SDS011;14654;48.898;8.308;2023-12-22T02:31:14;5.03;;;1.77;;
15633;SDS011;14654;48.898;8.308;2023-12-22T02:33:43;4.73;;;1.40;;
15633;SDS011;14654;48.898;8.308;2023-12-22T02:36:10;3.27;;;1.50;;
15633;SDS011;14654;48.898;8.308;2023-12-22T02:38:38;2.03;;;1.10;;
15633;SDS011;14654;48.898;8.308;2023-12-22T02:41:05;3.27;;;1.53;;
15633;SDS011;14654;48.898;8.308;2023-12-22T02:43:30;4.30;;;1.70;;
15633;SDS011;14654;48.898;8.308;2023-12-22T02:45:56;4.27;;;1.47;;
15633;SDS011;14654;48.898;8.308;2023-12-22T02:48:21;3.20;;;1.23;;
15633;SDS011;14654;48.898;8.308;2023-12-22T02:50:47;4.03;;;1.40;;
15633;SDS011;14654;48.898;8.308;2023-12-22T02:53:12;2.73;;;1.30;;
15633;SDS011;14654;48.898;8.308;2023-12-22T02:55:37;2.90;;;1.37;;
15633;SDS011;14654;48.898;8.308;2023-12-22T02:58:03;3.97;;;1.50;;
15633;SDS011;14654;48.898;8.308;2023-12-22T03:00:28;3.60;;;1.20;;
15633;SDS011;14654;48.898;8.308;2023-12-22T03:02:53;3.10;;;1.20;;
15633;SDS011;14654;48.898;8.308;2023-12-22T03:05:19;3.50;;;0.97;;
15633;SDS011;14654;48.898;8.308;2023-12-22T03:07:44;3.43;;;1.40;;
15633;SDS011;14654;48.898;8.308;2023-12-22T03:10:09;2.67;;;1.13;;
15633;SDS011;14654;48.898;8.308;2023-12-22T03:12:35;2.47;;;1.17;;
15633;SDS011;14654;48.898;8.308;2023-12-22T03:15:00;2.13;;;1.23;;
15633;SDS011;14654;48.898;8.308;2023-12-22T03:17:26;3.40;;;1.10;;
15633;SDS011;14654;48.898;8.308;2023-12-22T03:19:51;3.20;;;1.33;;
15633;SDS011;14654;48.898;8.308;2023-12-22T03:22:17;4.27;;;1.57;;
15633;SDS011;14654;48.898;8.308;2023-12-22T03:24:43;3.07;;;1.40;;
15633;SDS011;14654;48.898;8.308;2023-12-22T03:27:09;2.93;;;1.40;;
15633;SDS011;14654;48.898;8.308;2023-12-22T03:29:34;4.77;;;1.30;;
15633;SDS011;14654;48.898;8.308;2023-12-22T03:32:00;4.13;;;1.43;;
15633;SDS011;14654;48.898;8.308;2023-12-22T03:34:25;4.40;;;1.57;;
15633;SDS011;14654;48.898;8.308;2023-12-22T03:36:50;6.70;;;1.80;;
15633;SDS011;14654;48.898;8.308;2023-12-22T03:39:16;4.40;;;1.33;;
15633;SDS011;14654;48.898;8.308;2023-12-22T03:41:41;3.63;;;1.80;;
15633;SDS011;14654;48.898;8.308;2023-12-22T03:44:06;4.50;;;1.70;;
15633;SDS011;14654;48.898;8.308;2023-12-22T03:46:32;3.03;;;1.40;;
15633;SDS011;14654;48.898;8.308;2023-12-22T03:48:57;3.17;;;1.33;;
15633;SDS011;14654;48.898;8.308;2023-12-22T03:51:23;5.67;;;1.73;;
15633;SDS011;14654;48.898;8.308;2023-12-22T03:53:48;5.57;;;1.83;;
15633;SDS011;14654;48.898;8.308;2023-12-22T03:56:13;4.13;;;2.20;;
15633;SDS011;14654;48.898;8.308;2023-12-22T03:58:39;4.77;;;1.93;;
15633;SDS011;14654;48.898;8.308;2023-12-22T04:01:04;6.27;;;1.77;;
15633;SDS011;14654;48.898;8.308;2023-12-22T04:03:32;6.83;;;2.17;;
15633;SDS011;14654;48.898;8.308;2023-12-22T04:05:57;4.90;;;2.13;;
15633;SDS011;14654;48.898;8.308;2023-12-22T04:08:23;5.43;;;2.00;;
15633;SDS011;14654;48.898;8.308;2023-12-22T04:10:48;5.67;;;2.03;;
15633;SDS011;14654;48.898;8.308;2023-12-22T04:13:13;7.13;;;2.13;;
15633;SDS011;14654;48.898;8.308;2023-12-22T04:15:39;5.17;;;2.40;;
15633;SDS011;14654;48.898;8.308;2023-12-22T04:18:04;7.10;;;2.77;;
15633;SDS011;14654;48.898;8.308;2023-12-22T04:20:30;6.17;;;2.30;;
15633;SDS011;14654;48.898;8.308;2023-12-22T04:22:56;6.00;;;2.27;;
15633;SDS011;14654;48.898;8.308;2023-12-22T04:25:21;6.73;;;3.00;;
15633;SDS011;14654;48.898;8.308;2023-12-22T04:27:48;6.73;;;2.30;;
15633;SDS011;14654;48.898;8.308;2023-12-22T04:30:14;8.10;;;2.33;;
15633;SDS011;14654;48.898;8.308;2023-12-22T04:32:40;6.50;;;2.67;;
15633;SDS011;14654;48.898;8.308;2023-12-22T04:35:05;7.43;;;2.80;;
15633;SDS011;14654;48.898;8.308;2023-12-22T04:37:30;9.73;;;2.93;;
15633;SDS011;14654;48.898;8.308;2023-12-22T04:39:56;6.37;;;2.23;;
15633;SDS011;14654;48.898;8.308;2023-12-22T04:42:21;6.93;;;2.30;;
15633;SDS011;14654;48.898;8.308;2023-12-22T04:44:46;5.30;;;2.80;;
15633;SDS011;14654;48.898;8.308;2023-12-22T04:47:12;7.07;;;2.40;;
15633;SDS011;14654;48.898;8.308;2023-12-22T04:49:38;7.40;;;2.40;;
15633;SDS011;14654;48.898;8.308;2023-12-22T04:52:03;7.80;;;2.60;;
15633;SDS011;14654;48.898;8.308;2023-12-22T04:54:29;11.13;;;3.10;;
15633;SDS011;14654;48.898;8.308;2023-12-22T04:56:54;5.87;;;2.73;;
15633;SDS011;14654;48.898;8.308;2023-12-22T04:59:20;6.17;;;2.70;;
15633;SDS011;14654;48.898;8.308;2023-12-22T05:01:45;8.60;;;2.73;;
15633;SDS011;14654;48.898;8.308;2023-12-22T05:04:10;7.47;;;2.80;;
15633;SDS011;14654;48.898;8.308;2023-12-22T05:06:36;8.33;;;3.00;;
15633;SDS011;14654;48.898;8.308;2023-12-22T05:09:02;8.03;;;3.13;;
15633;SDS011;14654;48.898;8.308;2023-12-22T05:11:28;10.47;;;3.20;;
15633;SDS011;14654;48.898;8.308;2023-12-22T05:13:54;7.53;;;2.87;;
15633;SDS011;14654;48.898;8.308;2023-12-22T05:16:19;13.07;;;3.50;;
15633;SDS011;14654;48.898;8.308;2023-12-22T05:18:44;8.77;;;3.00;;
15633;SDS011;14654;48.898;8.308;2023-12-22T05:21:11;6.63;;;3.37;;
15633;SDS011;14654;48.898;8.308;2023-12-22T05:23:39;9.93;;;3.67;;
15633;SDS011;14654;48.898;8.308;2023-12-22T05:26:05;12.47;;;3.67;;
15633;SDS011;14654;48.898;8.308;2023-12-22T05:28:30;9.60;;;2.93;;
15633;SDS011;14654;48.898;8.308;2023-12-22T05:30:55;11.80;;;3.37;;
15633;SDS011;14654;48.898;8.308;2023-12-22T05:33:21;8.80;;;3.37;;
15633;SDS011;14654;48.898;8.308;2023-12-22T05:35:46;8.60;;;2.80;;
15633;SDS011;14654;48.898;8.308;2023-12-22T05:38:11;8.60;;;3.17;;
15633;SDS011;14654;48.898;8.308;2023-12-22T05:40:37;7.10;;;3.00;;
15633;SDS011;14654;48.898;8.308;2023-12-22T05:43:02;9.10;;;3.17;;
15633;SDS011;14654;48.898;8.308;2023-12-22T05:45:28;11.07;;;3.67;;
15633;SDS011;14654;48.898;8.308;2023-12-22T05:47:53;7.07;;;2.97;;
15633;SDS011;14654;48.898;8.308;2023-12-22T05:50:19;8.37;;;2.87;;
15633;SDS011;14654;48.898;8.308;2023-12-22T05:52:44;10.63;;;3.40;;
15633;SDS011;14654;48.898;8.308;2023-12-22T05:55:10;6.30;;;2.70;;
15633;SDS011;14654;48.898;8.308;2023-12-22T05:57:36;7.93;;;3.47;;
15633;SDS011;14654;48.898;8.308;2023-12-22T06:00:01;8.80;;;3.00;;
15633;SDS011;14654;48.898;8.308;2023-12-22T06:02:29;9.17;;;2.70;;
15633;SDS011;14654;48.898;8.308;2023-12-22T06:04:55;9.10;;;2.70;;
15633;SDS011;14654;48.898;8.308;2023-12-22T06:07:20;7.83;;;3.00;;
15633;SDS011;14654;48.898;8.308;2023-12-22T06:09:45;7.73;;;2.57;;
15633;SDS011;14654;48.898;8.308;2023-12-22T06:12:11;9.27;;;3.57;;
15633;SDS011;14654;48.898;8.308;2023-12-22T06:14:36;9.23;;;3.37;;
15633;SDS011;14654;48.898;8.308;2023-12-22T06:17:01;7.03;;;2.97;;
15633;SDS011;14654;48.898;8.308;2023-12-22T06:19:27;6.13;;;2.70;;
15633;SDS011;14654;48.898;8.308;2023-12-22T06:21:55;7.77;;;2.77;;
15633;SDS011;14654;48.898;8.308;2023-12-22T06:24:20;7.07;;;2.93;;
15633;SDS011;14654;48.898;8.308;2023-12-22T06:26:46;9.13;;;2.87;;
15633;SDS011;14654;48.898;8.308;2023-12-22T06:29:12;7.47;;;3.17;;
15633;SDS011;14654;48.898;8.308;2023-12-22T06:31:37;6.60;;;2.77;;
15633;SDS011;14654;48.898;8.308;2023-12-22T06:34:02;8.03;;;3.50;;
15633;SDS011;14654;48.898;8.308;2023-12-22T06:36:28;10.97;;;3.40;;
15633;SDS011;14654;48.898;8.308;2023-12-22T06:38:55;8.17;;;3.33;;
15633;SDS011;14654;48.898;8.308;2023-12-22T06:41:27;11.97;;;3.57;;
15633;SDS011;14654;48.898;8.308;2023-12-22T06:43:54;8.83;;;3.70;;
15633;SDS011;14654;48.898;8.308;2023-12-22T06:46:20;9.00;;;2.90;;
15633;SDS011;14654;48.898;8.308;2023-12-22T06:48:52;8.63;;;3.33;;
15633;SDS011;14654;48.898;8.308;2023-12-22T06:51:20;9.43;;;3.30;;
15633;SDS011;14654;48.898;8.308;2023-12-22T06:53:49;9.30;;;3.23;;
15633;SDS011;14654;48.898;8.308;2023-12-22T06:58:44;8.90;;;3.13;;
15633;SDS011;14654;48.898;8.308;2023-12-22T07:01:12;9.70;;;4.00;;
15633;SDS011;14654;48.898;8.308;2023-12-22T07:03:42;7.30;;;3.10;;
15633;SDS011;14654;48.898;8.308;2023-12-22T07:06:07;9.50;;;3.50;;
15633;SDS011;14654;48.898;8.308;2023-12-22T07:08:32;8.77;;;3.87;;
15633;SDS011;14654;48.898;8.308;2023-12-22T07:10:58;10.97;;;3.00;;
15633;SDS011;14654;48.898;8.308;2023-12-22T07:13:23;11.10;;;3.60;;
15633;SDS011;14654;48.898;8.308;2023-12-22T07:15:49;10.23;;;3.53;;
15633;SDS011;14654;48.898;8.308;2023-12-22T07:18:14;9.50;;;3.63;;
15633;SDS011;14654;48.898;8.308;2023-12-22T07:20:39;8.33;;;3.67;;
15633;SDS011;14654;48.898;8.308;2023-12-22T07:23:05;9.73;;;3.10;;
15633;SDS011;14654;48.898;8.308;2023-12-22T07:25:34;8.30;;;3.20;;
15633;SDS011;14654;48.898;8.308;2023-12-22T07:28:00;7.17;;;3.30;;
15633;SDS011;14654;48.898;8.308;2023-12-22T07:30:26;10.13;;;3.53;;
15633;SDS011;14654;48.898;8.308;2023-12-22T07:32:51;9.67;;;3.10;;
15633;SDS011;14654;48.898;8.308;2023-12-22T07:35:17;8.63;;;3.43;;
15633;SDS011;14654;48.898;8.308;2023-12-22T07:37:42;9.53;;;3.77;;
15633;SDS011;14654;48.898;8.308;2023-12-22T07:40:08;9.30;;;3.87;;
15633;SDS011;14654;48.898;8.308;2023-12-22T07:42:34;13.23;;;3.57;;
15633;SDS011;14654;48.898;8.308;2023-12-22T07:44:59;11.43;;;4.40;;
15633;SDS011;14654;48.898;8.308;2023-12-22T07:47:24;11.83;;;3.70;;
15633;SDS011;14654;48.898;8.308;2023-12-22T07:49:51;16.40;;;3.83;;
15633;SDS011;14654;48.898;8.308;2023-12-22T07:52:16;10.00;;;4.07;;
15633;SDS011;14654;48.898;8.308;2023-12-22T07:54:42;11.07;;;3.83;;
15633;SDS011;14654;48.898;8.308;2023-12-22T07:57:07;10.60;;;3.70;;
15633;SDS011;14654;48.898;8.308;2023-12-22T07:59:32;10.97;;;3.77;;
15633;SDS011;14654;48.898;8.308;2023-12-22T08:01:58;11.77;;;3.40;;
15633;SDS011;14654;48.898;8.308;2023-12-22T08:04:23;10.90;;;3.57;;
15633;SDS011;14654;48.898;8.308;2023-12-22T08:06:49;9.83;;;3.77;;
15633;SDS011;14654;48.898;8.308;2023-12-22T08:09:14;11.43;;;3.70;;
15633;SDS011;14654;48.898;8.308;2023-12-22T08:11:40;11.67;;;4.47;;
15633;SDS011;14654;48.898;8.308;2023-12-22T08:14:05;10.53;;;3.50;;
15633;SDS011;14654;48.898;8.308;2023-12-22T08:16:31;11.10;;;3.77;;
15633;SDS011;14654;48.898;8.308;2023-12-22T08:18:57;12.00;;;4.23;;
15633;SDS011;14654;48.898;8.308;2023-12-22T08:21:23;9.53;;;4.30;;
15633;SDS011;14654;48.898;8.308;2023-12-22T08:23:48;10.70;;;4.37;;
15633;SDS011;14654;48.898;8.308;2023-12-22T08:26:13;11.90;;;3.90;;
15633;SDS011;14654;48.898;8.308;2023-12-22T08:28:42;9.83;;;3.60;;
15633;SDS011;14654;48.898;8.308;2023-12-22T08:31:07;10.00;;;4.17;;
15633;SDS011;14654;48.898;8.308;2023-12-22T08:33:33;7.97;;;3.87;;
15633;SDS011;14654;48.898;8.308;2023-12-22T08:35:58;9.77;;;3.70;;
15633;SDS011;14654;48.898;8.308;2023-12-22T08:38:23;11.77;;;4.10;;
15633;SDS011;14654;48.898;8.308;2023-12-22T08:40:48;11.33;;;4.40;;
15633;SDS011;14654;48.898;8.308;2023-12-22T08:43:14;12.03;;;4.07;;
15633;SDS011;14654;48.898;8.308;2023-12-22T08:45:40;11.60;;;3.87;;
15633;SDS011;14654;48.898;8.308;2023-12-22T08:48:06;11.13;;;4.13;;
15633;SDS011;14654;48.898;8.308;2023-12-22T08:50:32;9.90;;;4.03;;
15633;SDS011;14654;48.898;8.308;2023-12-22T08:52:58;11.03;;;4.07;;
15633;SDS011;14654;48.898;8.308;2023-12-22T08:55:23;10.67;;;4.10;;
15633;SDS011;14654;48.898;8.308;2023-12-22T08:57:48;11.43;;;4.33;;
15633;SDS011;14654;48.898;8.308;2023-12-22T09:00:14;11.37;;;3.83;;
15633;SDS011;14654;48.898;8.308;2023-12-22T09:02:40;8.73;;;3.60;;
15633;SDS011;14654;48.898;8.308;2023-12-22T09:05:06;11.97;;;3.80;;
15633;SDS011;14654;48.898;8.308;2023-12-22T09:07:32;12.00;;;3.97;;
15633;SDS011;14654;48.898;8.308;2023-12-22T09:09:57;14.67;;;4.33;;
15633;SDS011;14654;48.898;8.308;2023-12-22T09:12:23;8.57;;;3.57;;
15633;SDS011;14654;48.898;8.308;2023-12-22T09:14:49;13.43;;;4.47;;
15633;SDS011;14654;48.898;8.308;2023-12-22T09:17:15;10.23;;;3.83;;
15633;SDS011;14654;48.898;8.308;2023-12-22T09:19:41;11.77;;;5.30;;
15633;SDS011;14654;48.898;8.308;2023-12-22T09:22:08;13.57;;;6.40;;
15633;SDS011;14654;48.898;8.308;2023-12-22T09:24:33;14.50;;;7.23;;
15633;SDS011;14654;48.898;8.308;2023-12-22T09:26:58;18.60;;;9.90;;
15633;SDS011;14654;48.898;8.308;2023-12-22T09:29:28;14.50;;;5.10;;
15633;SDS011;14654;48.898;8.308;2023-12-22T09:31:54;13.37;;;5.53;;
15633;SDS011;14654;48.898;8.308;2023-12-22T09:34:19;11.67;;;5.10;;
15633;SDS011;14654;48.898;8.308;2023-12-22T09:36:44;11.70;;;5.30;;
15633;SDS011;14654;48.898;8.308;2023-12-22T09:39:10;14.63;;;6.43;;
15633;SDS011;14654;48.898;8.308;2023-12-22T09:41:36;11.80;;;4.73;;
15633;SDS011;14654;48.898;8.308;2023-12-22T09:44:02;10.03;;;4.17;;
15633;SDS011;14654;48.898;8.308;2023-12-22T09:46:29;10.27;;;4.00;;
15633;SDS011;14654;48.898;8.308;2023-12-22T09:48:55;11.43;;;4.93;;
15633;SDS011;14654;48.898;8.308;2023-12-22T09:51:20;9.27;;;3.90;;
15633;SDS011;14654;48.898;8.308;2023-12-22T09:53:46;10.27;;;4.43;;
15633;SDS011;14654;48.898;8.308;2023-12-22T09:56:12;12.30;;;4.60;;
15633;SDS011;14654;48.898;8.308;2023-12-22T09:58:39;10.87;;;4.17;;
15633;SDS011;14654;48.898;8.308;2023-12-22T10:01:06;8.80;;;4.00;;
15633;SDS011;14654;48.898;8.308;2023-12-22T10:03:35;13.03;;;5.13;;
15633;SDS011;14654;48.898;8.308;2023-12-22T10:06:02;8.13;;;4.07;;
15633;SDS011;14654;48.898;8.308;2023-12-22T10:08:28;14.17;;;4.43;;
15633;SDS011;14654;48.898;8.308;2023-12-22T10:10:53;10.27;;;3.97;;
15633;SDS011;14654;48.898;8.308;2023-12-22T10:13:20;11.47;;;3.83;;
15633;SDS011;14654;48.898;8.308;2023-12-22T10:15:45;12.80;;;4.47;;
15633;SDS011;14654;48.898;8.308;2023-12-22T10:18:12;14.07;;;4.33;;
15633;SDS011;14654;48.898;8.308;2023-12-22T10:20:38;9.47;;;3.60;;
15633;SDS011;14654;48.898;8.308;2023-12-22T10:23:03;11.13;;;4.33;;
15633;SDS011;14654;48.898;8.308;2023-12-22T10:25:29;11.07;;;3.83;;
15633;SDS011;14654;48.898;8.308;2023-12-22T10:27:54;10.20;;;3.70;;
15633;SDS011;14654;48.898;8.308;2023-12-22T10:30:21;9.47;;;3.83;;
15633;SDS011;14654;48.898;8.308;2023-12-22T10:32:50;10.23;;;3.73;;
15633;SDS011;14654;48.898;8.308;2023-12-22T10:35:16;10.90;;;3.87;;
15633;SDS011;14654;48.898;8.308;2023-12-22T10:37:41;10.80;;;3.93;;
15633;SDS011;14654;48.898;8.308;2023-12-22T10:40:08;11.50;;;4.03;;
15633;SDS011;14654;48.898;8.308;2023-12-22T10:42:34;11.93;;;4.40;;
15633;SDS011;14654;48.898;8.308;2023-12-22T10:45:00;10.73;;;4.40;;
15633;SDS011;14654;48.898;8.308;2023-12-22T10:47:26;12.40;;;4.53;;
15633;SDS011;14654;48.898;8.308;2023-12-22T10:49:53;9.80;;;3.90;;
15633;SDS011;14654;48.898;8.308;2023-12-22T10:52:19;10.30;;;4.27;;
15633;SDS011;14654;48.898;8.308;2023-12-22T10:54:45;10.37;;;3.97;;
15633;SDS011;14654;48.898;8.308;2023-12-22T10:57:11;10.87;;;4.23;;
15633;SDS011;14654;48.898;8.308;2023-12-22T10:59:38;13.90;;;4.57;;
15633;SDS011;14654;48.898;8.308;2023-12-22T11:02:14;8.83;;;3.90;;
15633;SDS011;14654;48.898;8.308;2023-12-22T11:04:57;9.57;;;3.77;;
15633;SDS011;14654;48.898;8.308;2023-12-22T11:07:27;11.87;;;4.40;;
15633;SDS011;14654;48.898;8.308;2023-12-22T11:09:53;7.37;;;3.57;;
15633;SDS011;14654;48.898;8.308;2023-12-22T11:12:23;10.20;;;3.40;;
15633;SDS011;14654;48.898;8.308;2023-12-22T11:14:49;8.40;;;3.47;;
15633;SDS011;14654;48.898;8.308;2023-12-22T11:17:20;6.43;;;2.77;;
15633;SDS011;14654;48.898;8.308;2023-12-22T11:19:48;8.23;;;3.00;;
15633;SDS011;14654;48.898;8.308;2023-12-22T11:22:16;6.73;;;3.60;;
15633;SDS011;14654;48.898;8.308;2023-12-22T11:24:43;6.37;;;2.93;;
15633;SDS011;14654;48.898;8.308;2023-12-22T11:27:11;7.97;;;2.83;;
15633;SDS011;14654;48.898;8.308;2023-12-22T11:29:38;6.93;;;2.33;;
15633;SDS011;14654;48.898;8.308;2023-12-22T11:32:05;8.13;;;2.83;;
15633;SDS011;14654;48.898;8.308;2023-12-22T11:34:32;5.03;;;2.40;;
15633;SDS011;14654;48.898;8.308;2023-12-22T11:37:01;5.47;;;2.30;;
15633;SDS011;14654;48.898;8.308;2023-12-22T11:39:28;5.13;;;2.30;;
15633;SDS011;14654;48.898;8.308;2023-12-22T11:41:54;5.60;;;2.67;;
15633;SDS011;14654;48.898;8.308;2023-12-22T11:44:21;5.93;;;2.50;;
15633;SDS011;14654;48.898;8.308;2023-12-22T11:46:47;5.33;;;2.70;;
15633;SDS011;14654;48.898;8.308;2023-12-22T11:49:13;3.90;;;2.40;;
15633;SDS011;14654;48.898;8.308;2023-12-22T11:51:39;5.97;;;2.37;;
15633;SDS011;14654;48.898;8.308;2023-12-22T11:54:20;5.00;;;2.33;;
15633;SDS011;14654;48.898;8.308;2023-12-22T11:59:57;6.23;;;2.10;;
15633;SDS011;14654;48.898;8.308;2023-12-22T12:02:43;5.37;;;2.37;;
15633;SDS011;14654;48.898;8.308;2023-12-22T12:05:19;3.97;;;2.10;;
15633;SDS011;14654;48.898;8.308;2023-12-22T12:07:45;4.73;;;2.40;;
15633;SDS011;14654;48.898;8.308;2023-12-22T12:13:08;5.20;;;2.30;;
15633;SDS011;14654;48.898;8.308;2023-12-22T12:15:34;5.23;;;2.40;;
15633;SDS011;14654;48.898;8.308;2023-12-22T12:18:03;5.40;;;2.63;;
15633;SDS011;14654;48.898;8.308;2023-12-22T12:20:31;7.80;;;2.73;;
15633;SDS011;14654;48.898;8.308;2023-12-22T12:22:57;7.20;;;3.13;;
15633;SDS011;14654;48.898;8.308;2023-12-22T12:25:23;7.27;;;3.03;;
15633;SDS011;14654;48.898;8.308;2023-12-22T12:27:50;5.73;;;2.50;;
15633;SDS011;14654;48.898;8.308;2023-12-22T12:30:26;6.17;;;2.60;;
15633;SDS011;14654;48.898;8.308;2023-12-22T12:32:52;8.80;;;2.90;;
15633;SDS011;14654;48.898;8.308;2023-12-22T12:35:18;6.93;;;2.37;;
15633;SDS011;14654;48.898;8.308;2023-12-22T12:37:44;7.23;;;3.37;;
15633;SDS011;14654;48.898;8.308;2023-12-22T12:40:11;5.13;;;2.20;;
15633;SDS011;14654;48.898;8.308;2023-12-22T12:42:36;3.30;;;1.97;;
15633;SDS011;14654;48.898;8.308;2023-12-22T12:45:06;4.63;;;2.30;;
15633;SDS011;14654;48.898;8.308;2023-12-22T12:47:32;3.80;;;2.00;;
15633;SDS011;14654;48.898;8.308;2023-12-22T12:49:58;3.17;;;2.03;;
15633;SDS011;14654;48.898;8.308;2023-12-22T12:52:25;5.23;;;3.50;;
15633;SDS011;14654;48.898;8.308;2023-12-22T12:54:50;6.00;;;2.70;;
15633;SDS011;14654;48.898;8.308;2023-12-22T12:57:16;4.33;;;1.90;;
15633;SDS011;14654;48.898;8.308;2023-12-22T12:59:48;3.63;;;1.83;;
15633;SDS011;14654;48.898;8.308;2023-12-22T13:02:18;2.97;;;1.90;;
15633;SDS011;14654;48.898;8.308;2023-12-22T13:04:44;3.97;;;2.53;;
15633;SDS011;14654;48.898;8.308;2023-12-22T13:07:10;2.70;;;2.50;;
15633;SDS011;14654;48.898;8.308;2023-12-22T13:09:37;3.80;;;3.50;;
15633;SDS011;14654;48.898;8.308;2023-12-22T13:12:03;2.97;;;1.90;;
15633;SDS011;14654;48.898;8.308;2023-12-22T13:14:30;2.27;;;1.43;;
15633;SDS011;14654;48.898;8.308;2023-12-22T13:16:56;3.33;;;1.63;;
15633;SDS011;14654;48.898;8.308;2023-12-22T13:19:23;1.97;;;1.13;;
15633;SDS011;14654;48.898;8.308;2023-12-22T13:21:55;2.27;;;1.50;;
15633;SDS011;14654;48.898;8.308;2023-12-22T13:24:21;2.43;;;1.33;;
15633;SDS011;14654;48.898;8.308;2023-12-22T13:26:46;5.67;;;1.80;;
15633;SDS011;14654;48.898;8.308;2023-12-22T13:29:12;2.63;;;1.47;;
15633;SDS011;14654;48.898;8.308;2023-12-22T13:31:39;1.87;;;1.20;;
15633;SDS011;14654;48.898;8.308;2023-12-22T13:34:09;3.40;;;2.10;;
15633;SDS011;14654;48.898;8.308;2023-12-22T13:36:35;3.97;;;1.40;;
15633;SDS011;14654;48.898;8.308;2023-12-22T13:39:04;2.77;;;1.63;;
15633;SDS011;14654;48.898;8.308;2023-12-22T13:41:48;2.47;;;1.47;;
15633;SDS011;14654;48.898;8.308;2023-12-22T13:44:14;2.53;;;1.60;;
15633;SDS011;14654;48.898;8.308;2023-12-22T13:46:39;1.70;;;1.53;;
15633;SDS011;14654;48.898;8.308;2023-12-22T13:49:07;2.87;;;2.37;;
15633;SDS011;14654;48.898;8.308;2023-12-22T13:51:40;1.87;;;1.73;;
15633;SDS011;14654;48.898;8.308;2023-12-22T13:54:06;2.60;;;1.43;;
15633;SDS011;14654;48.898;8.308;2023-12-22T13:56:34;2.53;;;1.30;;
15633;SDS011;14654;48.898;8.308;2023-12-22T13:59:01;2.23;;;1.20;;
15633;SDS011;14654;48.898;8.308;2023-12-22T14:01:27;1.43;;;1.00;;
15633;SDS011;14654;48.898;8.308;2023-12-22T14:03:52;2.30;;;1.57;;
15633;SDS011;14654;48.898;8.308;2023-12-22T14:06:18;1.50;;;1.30;;
15633;SDS011;14654;48.898;8.308;2023-12-22T14:08:43;2.40;;;0.93;;
15633;SDS011;14654;48.898;8.308;2023-12-22T14:11:09;0.90;;;0.70;;
15633;SDS011;14654;48.898;8.308;2023-12-22T14:13:34;0.80;;;0.50;;
15633;SDS011;14654;48.898;8.308;2023-12-22T14:16:08;1.10;;;0.70;;
15633;SDS011;14654;48.898;8.308;2023-12-22T14:18:33;1.70;;;0.87;;
15633;SDS011;14654;48.898;8.308;2023-12-22T14:20:59;1.67;;;0.90;;
15633;SDS011;14654;48.898;8.308;2023-12-22T14:23:24;1.47;;;0.90;;
15633;SDS011;14654;48.898;8.308;2023-12-22T14:25:50;1.47;;;0.77;;
15633;SDS011;14654;48.898;8.308;2023-12-22T14:28:15;1.97;;;0.77;;
15633;SDS011;14654;48.898;8.308;2023-12-22T14:30:40;3.23;;;2.87;;
15633;SDS011;14654;48.898;8.308;2023-12-22T14:33:06;1.60;;;1.50;;
15633;SDS011;14654;48.898;8.308;2023-12-22T14:35:31;3.27;;;2.97;;
15633;SDS011;14654;48.898;8.308;2023-12-22T14:37:56;1.40;;;1.30;;
15633;SDS011;14654;48.898;8.308;2023-12-22T14:40:22;1.10;;;1.00;;
15633;SDS011;14654;48.898;8.308;2023-12-22T14:42:47;1.17;;;0.83;;
15633;SDS011;14654;48.898;8.308;2023-12-22T14:45:12;1.50;;;0.50;;
15633;SDS011;14654;48.898;8.308;2023-12-22T14:47:38;1.50;;;0.60;;
15633;SDS011;14654;48.898;8.308;2023-12-22T14:50:03;1.07;;;0.60;;